Time;durP1;ratioP1;P1;durP2;ratioP2;P2;SDS_P1;SDS_P2;PMS_P1;PMS_P2;Temp;Humidity;BMP_temperature;BMP_pressure;BME280_temperature;BME280_humidity;BME280_pressure;Samples;Min_cycle;Max_cycle;Signal;HPM_P1;HPM_P2
2022/01/20 00:01:06;;;;;;;;;;;;;;;;;;4207440;28;1004;-56
2022/01/20 00:03:31;;;;;;;;;;;;;;;;;;4191486;28;1206;-56
2022/01/20 00:06:41;;;;;;;;;;;;;;;;;;4206714;28;961;-55
2022/01/20 00:09:06;;;;;;;;;;;;;;;;;;4207392;28;929;-56
2022/01/20 00:27:21;;;;;;;;;;;;;;;;;;4206684;28;1058;-55
2022/01/20 00:30:16;;;;;;;;;;;;;;;;;;4206679;28;1228;-55
2022/01/20 00:32:48;;;;;;;;;;;;;;;;;;4191070;28;1110;-56
2022/01/20 00:35:18;;;;;;;;;;;;;;;;;;4207010;28;966;-55
2022/01/20 00:37:38;;;;;;;;;;;;;;;;;;4206786;28;1002;-55
2022/01/20 00:39:58;;;;;;;;;;;;;;;;;;4206495;28;950;-55
2022/01/20 00:42:18;;;;;;;;;;;;;;;;;;4206840;28;1085;-56
2022/01/20 00:44:38;;;;;;;;;;;;;;;;;;4190997;28;1091;-56
2022/01/20 00:46:59;;;;;;;;;;;;;;;;;;4206690;28;883;-56
2022/01/20 00:49:19;;;;;;;;;;;;;;;;;;4206086;28;1008;-55
2022/01/20 00:51:39;;;;;;;;;;;;;;;;;;4206412;28;1094;-55
2022/01/20 00:53:59;;;;;;;;;;;;;;;;;;4191376;28;960;-56
2022/01/20 00:56:20;;;;;;;;;;;;;;;;;;4206448;28;1905;-56
2022/01/20 00:58:40;;;;;;;;;;;;;;;;;;4206616;28;1011;-56
2022/01/20 01:01:01;;;;;;;;;;;;;;;;;;4189637;28;935;-56
2022/01/20 01:03:22;;;;;;;;;;;;;;;;;;4206448;28;928;-55
2022/01/20 01:05:55;;;;;;;;;;;;;;;;;;4190977;28;1120;-55
2022/01/20 01:08:17;;;;;;;;;;;;;;;;;;4191098;28;990;-56
2022/01/20 01:10:39;;;;;;;;;;;;;;;;;;4206029;28;1396;-55
2022/01/20 01:13:03;;;;;;;;;;;;;;;;;;4206253;28;1025;-56
2022/01/20 01:15:27;;;;;;;;;;;;;;;;;;4206141;28;941;-55
2022/01/20 01:20:28;;;;;;;;;;;;;;;;;;4191132;28;1020;-56
2022/01/20 01:22:48;;;;;;;;;;;;;;;;;;4205947;28;1130;-57
2022/01/20 01:25:08;;;;;;;;;;;;;;;;;;4206270;28;1043;-55
2022/01/20 01:27:34;;;;;;;;;;;;;;;;;;4191081;28;966;-55
2022/01/20 01:32:41;;;;;;;;;;;;;;;;;;4204683;28;1134;-56
2022/01/20 01:35:05;;;;;;;;;;;;;;;;;;4190517;28;1195;-56
2022/01/20 01:38:22;;;;;;;;;;;;;;;;;;4190482;28;1906;-55
2022/01/20 01:40:06;;;;;;;;;;;;;;;;;;4205600;28;1080;-55
2022/01/20 01:42:33;;;;;;;;;;;;;;;;;;4190684;28;1108;-56
2022/01/20 01:44:54;;;;;;;;;;;;;;;;;;4205284;28;1005;-56
2022/01/20 01:47:15;;;;;;;;;;;;;;;;;;4190787;28;1053;-56
2022/01/20 01:49:35;;;;;;;;;;;;;;;;;;4190458;28;1051;-55
2022/01/20 01:51:56;;;;;;;;;;;;;;;;;;4190607;28;1041;-56
2022/01/20 01:54:17;;;;;;;;;;;;;;;;;;4190102;28;1407;-56
2022/01/20 01:56:37;;;;;;;;;;;;;;;;;;4190059;28;1985;-55
2022/01/20 01:59:01;;;;;;;;;;;;;;;;;;4189589;28;1005;-56
2022/01/20 02:01:43;;;;;;;;;;;;;;;;;;4205396;28;1086;-56
2022/01/20 02:04:13;;;;;;;;;;;;;;;;;;4190137;28;1007;-56
2022/01/20 02:07:10;;;;;;;;;;;;;;;;;;4189934;28;1103;-56
2022/01/20 02:17:47;;;;;;;;;;;;;;;;;;4189840;28;1009;-56
2022/01/20 02:17:55;;;;;;;;;;;;;;;;;;4189837;28;1993;-56
2022/01/20 02:20:16;;;;;;;;;;;;;;;;;;4217776;28;1105;-55
2022/01/20 02:22:46;;;;;;;;;;;;;;;;;;4189628;28;1428;-55
2022/01/20 02:25:14;;;;;;;;;;;;;;;;;;4197534;28;1169;-56
2022/01/20 02:27:35;;;;;;;;;;;;;;;;;;4232205;28;1032;-55
2022/01/20 02:29:56;;;;;;;;;;;;;;;;;;4204091;28;1096;-56
2022/01/20 02:32:16;;;;;;;;;;;;;;;;;;4204246;28;1042;-55
2022/01/20 02:34:37;;;;;;;;;;;;;;;;;;4204179;28;1093;-55
2022/01/20 02:36:59;;;;;;;;;;;;;;;;;;4232102;28;1902;-56
2022/01/20 02:39:42;;;;;;;;;;;;;;;;;;4204127;28;979;-55
2022/01/20 02:44:51;;;;;;;;;;;;;;;;;;4176139;28;963;-56
2022/01/20 02:47:12;;;;;;;;;;;;;;;;;;4205247;28;1021;-56
2022/01/20 02:49:33;;;;;;;;;;;;;;;;;;4205113;28;838;-55
2022/01/20 02:51:53;;;;;;;;;;;;;;;;;;4203876;28;954;-56
2022/01/20 02:54:14;;;;;;;;;;;;;;;;;;4203742;28;1164;-56
2022/01/20 02:56:34;;;;;;;;;;;;;;;;;;4203835;28;1918;-56
2022/01/20 02:58:55;;;;;;;;;;;;;;;;;;4203655;28;969;-55
2022/01/20 03:01:15;;;;;;;;;;;;;;;;;;4203959;28;1108;-56
2022/01/20 03:03:36;;;;;;;;;;;;;;;;;;4204681;28;956;-56
2022/01/20 03:05:56;;;;;;;;;;;;;;;;;;4204013;28;1164;-55
2022/01/20 03:08:17;;;;;;;;;;;;;;;;;;4203555;28;958;-55
2022/01/20 03:10:38;;;;;;;;;;;;;;;;;;4204847;28;937;-56
2022/01/20 03:12:58;;;;;;;;;;;;;;;;;;4203645;28;966;-56
2022/01/20 03:15:19;;;;;;;;;;;;;;;;;;4204548;28;1202;-56
2022/01/20 03:17:40;;;;;;;;;;;;;;;;;;4204494;28;1975;-56
2022/01/20 03:20:00;;;;;;;;;;;;;;;;;;4204578;28;1327;-56
2022/01/20 03:22:21;;;;;;;;;;;;;;;;;;4203861;28;977;-56
2022/01/20 03:24:42;;;;;;;;;;;;;;;;;;4206222;28;1282;-55
2022/01/20 03:27:02;;;;;;;;;;;;;;;;;;4206518;28;1610;-56
2022/01/20 03:29:23;;;;;;;;;;;;;;;;;;4207282;28;945;-56
2022/01/20 03:31:44;;;;;;;;;;;;;;;;;;4206525;28;955;-55
2022/01/20 03:34:06;;;;;;;;;;;;;;;;;;4207671;28;1026;-56
2022/01/20 03:36:26;;;;;;;;;;;;;;;;;;4206406;28;977;-56
2022/01/20 03:38:54;;;;;;;;;;;;;;;;;;4206447;28;1053;-55
2022/01/20 03:41:15;;;;;;;;;;;;;;;;;;4206243;28;1265;-56
2022/01/20 03:43:35;;;;;;;;;;;;;;;;;;4206403;28;997;-56
2022/01/20 03:45:57;;;;;;;;;;;;;;;;;;4206393;28;1344;-56
2022/01/20 03:48:18;;;;;;;;;;;;;;;;;;4207171;28;1358;-56
2022/01/20 03:53:18;;;;;;;;;;;;;;;;;;4206319;28;878;-56
2022/01/20 03:55:39;;;;;;;;;;;;;;;;;;4206373;28;934;-55
2022/01/20 03:58:04;;;;;;;;;;;;;;;;;;4234499;28;1971;-56
2022/01/20 04:00:30;;;;;;;;;;;;;;;;;;4206043;28;1007;-55
2022/01/20 04:03:08;;;;;;;;;;;;;;;;;;4206490;28;1255;-56
2022/01/20 04:05:58;;;;;;;;;;;;;;;;;;4204496;28;1024;-55
2022/01/20 04:08:27;;;;;;;;;;;;;;;;;;4234424;28;1226;-56
2022/01/20 04:10:48;;;;;;;;;;;;;;;;;;4234051;28;958;-56
2022/01/20 04:13:10;;;;;;;;;;;;;;;;;;4206034;28;1210;-55
2022/01/20 04:15:37;;;;;;;;;;;;;;;;;;4205955;28;1295;-56
2022/01/20 04:18:01;;;;;;;;;;;;;;;;;;4205962;28;1980;-55
2022/01/20 04:20:22;;;;;;;;;;;;;;;;;;4205952;28;1021;-56
2022/01/20 04:22:43;;;;;;;;;;;;;;;;;;4206979;28;934;-56
2022/01/20 04:25:03;;;;;;;;;;;;;;;;;;4206843;28;1246;-56
2022/01/20 04:27:24;;;;;;;;;;;;;;;;;;4191638;28;941;-55
2022/01/20 04:29:44;;;;;;;;;;;;;;;;;;4191605;28;1050;-56
2022/01/20 04:32:05;;;;;;;;;;;;;;;;;;4206417;28;1087;-56
2022/01/20 04:34:25;;;;;;;;;;;;;;;;;;4206447;28;1201;-56
2022/01/20 04:36:48;;;;;;;;;;;;;;;;;;4220157;28;860;-55
2022/01/20 04:39:09;;;;;;;;;;;;;;;;;;4191383;28;1022;-56
2022/01/20 04:41:30;;;;;;;;;;;;;;;;;;4191536;28;1109;-56
2022/01/20 04:43:53;;;;;;;;;;;;;;;;;;4191856;28;938;-56
2022/01/20 04:46:21;;;;;;;;;;;;;;;;;;4191376;28;986;-56
2022/01/20 04:48:59;;;;;;;;;;;;;;;;;;4191146;28;1000;-56
2022/01/20 04:57:17;;;;;;;;;;;;;;;;;;4191554;28;1193;-55
2022/01/20 04:59:39;;;;;;;;;;;;;;;;;;4191477;28;1025;-56
2022/01/20 05:01:59;;;;;;;;;;;;;;;;;;4191020;28;1143;-56
2022/01/20 05:04:33;;;;;;;;;;;;;;;;;;4190812;28;1142;-56
2022/01/20 05:07:05;;;;;;;;;;;;;;;;;;4190774;28;1417;-55
2022/01/20 05:09:26;;;;;;;;;;;;;;;;;;4191156;28;984;-55
2022/01/20 05:11:50;;;;;;;;;;;;;;;;;;4190967;28;891;-55
2022/01/20 05:14:10;;;;;;;;;;;;;;;;;;4190799;28;1272;-56
2022/01/20 05:16:31;;;;;;;;;;;;;;;;;;4206057;28;954;-56
2022/01/20 05:18:54;;;;;;;;;;;;;;;;;;4219598;28;1980;-56
2022/01/20 05:21:15;;;;;;;;;;;;;;;;;;4191042;28;928;-55
2022/01/20 05:23:35;;;;;;;;;;;;;;;;;;4219164;28;1091;-55
2022/01/20 05:26:02;;;;;;;;;;;;;;;;;;4190397;28;967;-55
2022/01/20 05:28:22;;;;;;;;;;;;;;;;;;4219050;28;1023;-56
2022/01/20 05:30:43;;;;;;;;;;;;;;;;;;4191288;28;1330;-56
2022/01/20 05:33:21;;;;;;;;;;;;;;;;;;4190963;28;982;-55
2022/01/20 05:35:43;;;;;;;;;;;;;;;;;;4204547;28;1687;-55
2022/01/20 05:38:04;;;;;;;;;;;;;;;;;;4219103;28;1910;-55
2022/01/20 05:40:24;;;;;;;;;;;;;;;;;;4205735;28;1176;-56
2022/01/20 05:42:45;;;;;;;;;;;;;;;;;;4218941;28;965;-56
2022/01/20 05:45:05;;;;;;;;;;;;;;;;;;4205685;28;893;-56
2022/01/20 05:47:27;;;;;;;;;;;;;;;;;;4190242;28;1019;-56
2022/01/20 05:50:00;;;;;;;;;;;;;;;;;;4205861;28;1006;-55
2022/01/20 05:52:20;;;;;;;;;;;;;;;;;;4190071;28;1398;-55
2022/01/20 05:54:40;;;;;;;;;;;;;;;;;;4190138;28;1035;-56
2022/01/20 05:57:01;;;;;;;;;;;;;;;;;;4205485;28;1198;-56
2022/01/20 05:59:21;;;;;;;;;;;;;;;;;;4190126;28;1151;-56
2022/01/20 06:01:45;;;;;;;;;;;;;;;;;;4190457;28;1026;-56
2022/01/20 06:04:09;;;;;;;;;;;;;;;;;;4190494;28;1041;-56
2022/01/20 06:06:30;;;;;;;;;;;;;;;;;;4190369;28;1027;-55
2022/01/20 06:08:51;;;;;;;;;;;;;;;;;;4218685;28;1018;-56
2022/01/20 06:11:11;;;;;;;;;;;;;;;;;;4190505;28;1225;-56
2022/01/20 06:13:32;;;;;;;;;;;;;;;;;;4190110;28;971;-55
2022/01/20 06:15:53;;;;;;;;;;;;;;;;;;4190266;28;1293;-55
2022/01/20 06:18:14;;;;;;;;;;;;;;;;;;4189767;28;1983;-55
2022/01/20 06:20:40;;;;;;;;;;;;;;;;;;4218418;28;1140;-56
2022/01/20 06:23:00;;;;;;;;;;;;;;;;;;4205005;28;970;-56
2022/01/20 06:25:21;;;;;;;;;;;;;;;;;;4227378;28;1175;-55
2022/01/20 06:27:42;;;;;;;;;;;;;;;;;;4204285;28;1417;-55
2022/01/20 06:30:02;;;;;;;;;;;;;;;;;;4203869;28;1061;-55
2022/01/20 06:32:23;;;;;;;;;;;;;;;;;;4204244;28;956;-56
2022/01/20 06:34:44;;;;;;;;;;;;;;;;;;4204292;28;994;-55
2022/01/20 06:37:04;;;;;;;;;;;;;;;;;;4205068;28;1051;-55
2022/01/20 06:39:25;;;;;;;;;;;;;;;;;;4204286;28;1910;-56
2022/01/20 06:41:45;;;;;;;;;;;;;;;;;;4204227;28;1194;-55
2022/01/20 06:44:05;;;;;;;;;;;;;;;;;;4204988;28;929;-55
2022/01/20 06:46:26;;;;;;;;;;;;;;;;;;4204206;28;1162;-55
2022/01/20 06:48:51;;;;;;;;;;;;;;;;;;4203906;28;868;-55
2022/01/20 06:51:26;;;;;;;;;;;;;;;;;;4203971;28;1249;-55
2022/01/20 06:53:47;;;;;;;;;;;;;;;;;;4204116;28;1020;-55
2022/01/20 06:56:08;;;;;;;;;;;;;;;;;;4204002;28;982;-56
2022/01/20 06:58:28;;;;;;;;;;;;;;;;;;4232324;28;1992;-56
2022/01/20 07:00:49;;;;;;;;;;;;;;;;;;4204130;28;1198;-55
2022/01/20 07:03:10;;;;;;;;;;;;;;;;;;4205416;28;1106;-55
2022/01/20 07:05:30;;;;;;;;;;;;;;;;;;4220324;28;1385;-56
2022/01/20 07:07:51;;;;;;;;;;;;;;;;;;4218764;28;1034;-56
2022/01/20 07:10:17;;;;;;;;;;;;;;;;;;4220085;28;1340;-55
2022/01/20 07:12:46;;;;;;;;;;;;;;;;;;4219516;28;1779;-56
2022/01/20 07:15:07;;;;;;;;;;;;;;;;;;4220334;28;1022;-55
2022/01/20 07:17:27;;;;;;;;;;;;;;;;;;4220126;28;961;-55
2022/01/20 07:19:48;;;;;;;;;;;;;;;;;;4220189;28;1933;-55
2022/01/20 07:22:10;;;;;;;;;;;;;;;;;;4206902;28;1054;-55
2022/01/20 07:24:31;;;;;;;;;;;;;;;;;;4203408;28;1085;-55
2022/01/20 07:26:58;;;;;;;;;;;;;;;;;;4203539;28;957;-55
2022/01/20 07:29:21;;;;;;;;;;;;;;;;;;4203625;28;1459;-55
2022/01/20 07:31:41;;;;;;;;;;;;;;;;;;4203558;28;982;-55
2022/01/20 07:34:04;;;;;;;;;;;;;;;;;;4203778;28;1150;-56
2022/01/20 07:36:24;;;;;;;;;;;;;;;;;;4232363;28;1276;-56
2022/01/20 07:38:45;;;;;;;;;;;;;;;;;;4203355;28;1906;-55
2022/01/20 07:41:05;;;;;;;;;;;;;;;;;;4252927;27;1640;-55
2022/01/20 07:43:25;;;;;;;;;;;;;;;;;;4219843;28;1619;-55
2022/01/20 07:45:48;;;;;;;;;;;;;;;;;;4217504;28;2272;-55
2022/01/20 07:48:22;;;;;;;;;;;;;;;;;;4217565;28;1532;-55
2022/01/20 07:50:48;;;;;;;;;;;;;;;;;;4218959;28;1516;-54
2022/01/20 07:53:10;;;;;;;;;;;;;;;;;;4217156;28;1707;-55
2022/01/20 07:55:32;;;;;;;;;;;;;;;;;;4216542;28;1783;-55
2022/01/20 07:57:54;;;;;;;;;;;;;;;;;;4217493;28;1922;-55
2022/01/20 08:00:18;;;;;;;;;;;;;;;;;;4218446;28;1820;-55
2022/01/20 08:02:38;;;;;;;;;;;;;;;;;;4217795;28;2217;-56
2022/01/20 08:04:58;;;;;;;;;;;;;;;;;;4215466;28;1719;-55
2022/01/20 08:07:19;;;;;;;;;;;;;;;;;;4216929;28;2109;-55
2022/01/20 08:09:40;;;;;;;;;;;;;;;;;;4219117;28;1518;-56
2022/01/20 08:12:06;;;;;;;;;;;;;;;;;;4222158;28;1546;-56
2022/01/20 08:14:32;;;;;;;;;;;;;;;;;;4221074;28;1623;-56
2022/01/20 08:16:52;;;;;;;;;;;;;;;;;;4220920;28;1933;-56
2022/01/20 08:19:14;;;;;;;;;;;;;;;;;;4219257;28;1910;-56
2022/01/20 08:21:35;;;;;;;;;;;;;;;;;;4219178;28;1756;-55
2022/01/20 08:23:56;;;;;;;;;;;;;;;;;;4222132;28;1725;-55
2022/01/20 08:26:17;;;;;;;;;;;;;;;;;;4221280;28;1748;-56
2022/01/20 08:28:37;;;;;;;;;;;;;;;;;;4220706;28;2637;-55
2022/01/20 08:30:58;;;;;;;;;;;;;;;;;;4220592;28;2000;-55
2022/01/20 08:33:19;;;;;;;;;;;;;;;;;;4219015;28;2305;-57
2022/01/20 08:35:59;;;;;;;;;;;;;;;;;;4220515;28;1768;-56
2022/01/20 08:38:32;;;;;;;;;;;;;;;;;;4220878;28;2334;-55
2022/01/20 08:40:52;;;;;;;;;;;;;;;;;;4221285;28;2254;-56
2022/01/20 08:43:13;;;;;;;;;;;;;;;;;;4221297;28;2501;-55
2022/01/20 08:45:35;;;;;;;;;;;;;;;;;;4221442;28;1553;-55
2022/01/20 08:47:57;;;;;;;;;;;;;;;;;;4218063;28;2338;-55
2022/01/20 08:50:19;;;;;;;;;;;;;;;;;;4219116;28;2075;-55
2022/01/20 08:52:40;;;;;;;;;;;;;;;;;;4221187;28;1029;-56
2022/01/20 08:55:00;;;;;;;;;;;;;;;;;;4222075;28;1155;-56
2022/01/20 08:57:41;;;;;;;;;;;;;;;;;;4222075;28;1918;-55
2022/01/20 09:00:01;;;;;;;;;;;;;;;;;;4221345;28;1910;-55
2022/01/20 09:02:23;;;;;;;;;;;;;;;;;;4221989;28;1129;-56
2022/01/20 09:04:44;;;;;;;;;;;;;;;;;;4221843;28;1024;-55
2022/01/20 09:07:23;;;;;;;;;;;;;;;;;;4215881;28;1760;-56
2022/01/20 09:09:46;;;;;;;;;;;;;;;;;;4221897;28;1763;-57
2022/01/20 09:12:19;;;;;;;;;;;;;;;;;;4221759;28;985;-57
2022/01/20 09:17:20;;;;;;;;;;;;;;;;;;4205286;28;1217;-56
2022/01/20 09:19:40;;;;;;;;;;;;;;;;;;4206166;28;1984;-57
2022/01/20 09:22:00;;;;;;;;;;;;;;;;;;4203552;28;1061;-55
2022/01/20 09:24:23;;;;;;;;;;;;;;;;;;4205177;28;1256;-56
2022/01/20 09:26:43;;;;;;;;;;;;;;;;;;4219333;28;1826;-56
2022/01/20 09:29:04;;;;;;;;;;;;;;;;;;4221385;28;929;-56
2022/01/20 09:31:27;;;;;;;;;;;;;;;;;;4221338;28;1760;-56
2022/01/20 09:33:48;;;;;;;;;;;;;;;;;;4221852;28;922;-55
2022/01/20 09:36:10;;;;;;;;;;;;;;;;;;4221509;28;1839;-56
2022/01/20 09:38:31;;;;;;;;;;;;;;;;;;4220745;28;1787;-55
2022/01/20 09:40:52;;;;;;;;;;;;;;;;;;4221194;28;1829;-56
2022/01/20 09:43:14;;;;;;;;;;;;;;;;;;4221891;28;882;-55
2022/01/20 09:45:34;;;;;;;;;;;;;;;;;;4221764;28;1188;-56
2022/01/20 09:47:55;;;;;;;;;;;;;;;;;;4221359;28;1130;-56
2022/01/20 09:50:35;;;;;;;;;;;;;;;;;;4222400;28;1757;-55
2022/01/20 09:53:30;;;;;;;;;;;;;;;;;;4186408;28;1497;-55
2022/01/20 09:56:02;;;;;;;;;;;;;;;;;;4219344;28;1069;-56
2022/01/20 09:58:23;;;;;;;;;;;;;;;;;;4221210;28;1139;-56
2022/01/20 10:00:43;;;;;;;;;;;;;;;;;;4222198;28;1987;-56
2022/01/20 10:03:06;;;;;;;;;;;;;;;;;;4222426;28;915;-55
2022/01/20 10:05:26;;;;;;;;;;;;;;;;;;4221101;28;1159;-56
2022/01/20 10:07:47;;;;;;;;;;;;;;;;;;4221892;28;878;-56
2022/01/20 10:10:17;;;;;;;;;;;;;;;;;;4221340;28;952;-56
2022/01/20 10:12:57;;;;;;;;;;;;;;;;;;4221005;28;1117;-56
2022/01/20 10:15:37;;;;;;;;;;;;;;;;;;4220543;28;1114;-56
2022/01/20 10:18:23;;;;;;;;;;;;;;;;;;4222250;28;833;-56
2022/01/20 10:20:53;;;;;;;;;;;;;;;;;;4215150;28;2996;-54
2022/01/20 10:23:30;;;;;;;;;;;;;;;;;;4219990;28;1731;-55
2022/01/20 10:26:15;;;;;;;;;;;;;;;;;;4216135;28;2035;-56
2022/01/20 10:28:44;;;;;;;;;;;;;;;;;;4217206;28;2392;-55
2022/01/20 10:31:04;;;;;;;;;;;;;;;;;;4213954;28;1648;-55
2022/01/20 10:33:24;;;;;;;;;;;;;;;;;;4215205;28;1537;-56
2022/01/20 10:35:45;;;;;;;;;;;;;;;;;;4220147;28;1868;-54
2022/01/20 10:38:20;;;;;;;;;;;;;;;;;;4220486;28;2014;-56
2022/01/20 10:40:48;;;;;;;;;;;;;;;;;;4218012;28;2397;-54
2022/01/20 10:43:08;;;;;;;;;;;;;;;;;;4215151;28;1483;-55
2022/01/20 10:45:29;;;;;;;;;;;;;;;;;;4218494;28;1357;-55
2022/01/20 10:47:50;;;;;;;;;;;;;;;;;;4220162;28;1371;-55
2022/01/20 10:50:10;;;;;;;;;;;;;;;;;;4219681;28;1766;-56
2022/01/20 10:52:31;;;;;;;;;;;;;;;;;;4219405;28;2780;-55
2022/01/20 10:54:51;;;;;;;;;;;;;;;;;;4216918;28;1594;-55
2022/01/20 10:57:19;;;;;;;;;;;;;;;;;;4218000;28;1854;-55
2022/01/20 10:59:40;;;;;;;;;;;;;;;;;;4216658;28;2046;-54
2022/01/20 11:02:01;;;;;;;;;;;;;;;;;;4219291;28;1387;-55
2022/01/20 11:04:21;;;;;;;;;;;;;;;;;;4205554;28;1955;-55
2022/01/20 11:06:42;;;;;;;;;;;;;;;;;;4232091;28;1207;-55
2022/01/20 11:09:24;;;;;;;;;;;;;;;;;;4203172;28;1115;-54
2022/01/20 11:12:21;;;;;;;;;;;;;;;;;;4203595;28;909;-55
2022/01/20 11:14:52;;;;;;;;;;;;;;;;;;4232372;28;1004;-56
2022/01/20 11:17:13;;;;;;;;;;;;;;;;;;4218953;28;1251;-56
2022/01/20 11:19:35;;;;;;;;;;;;;;;;;;4218481;28;1986;-56
2022/01/20 11:21:56;;;;;;;;;;;;;;;;;;4220081;28;1108;-56
2022/01/20 11:24:16;;;;;;;;;;;;;;;;;;4220139;28;1072;-56
2022/01/20 11:27:06;;;;;;;;;;;;;;;;;;4205871;28;1021;-57
2022/01/20 11:29:47;;;;;;;;;;;;;;;;;;4218259;28;1018;-56
2022/01/20 11:32:36;;;;;;;;;;;;;;;;;;4215953;28;1159;-56
2022/01/20 11:35:10;;;;;;;;;;;;;;;;;;4206091;28;968;-56
2022/01/20 11:37:32;;;;;;;;;;;;;;;;;;4221400;28;1012;-56
2022/01/20 11:39:52;;;;;;;;;;;;;;;;;;4221110;28;1982;-56
2022/01/20 11:42:12;;;;;;;;;;;;;;;;;;4221059;28;981;-56
2022/01/20 11:44:33;;;;;;;;;;;;;;;;;;4223245;28;1012;-56
2022/01/20 11:46:53;;;;;;;;;;;;;;;;;;4223855;28;1229;-55
2022/01/20 11:49:14;;;;;;;;;;;;;;;;;;4213242;28;1161;-55
2022/01/20 11:51:34;;;;;;;;;;;;;;;;;;4207093;28;1048;-56
2022/01/20 11:53:54;;;;;;;;;;;;;;;;;;4206990;28;1037;-56
2022/01/20 11:56:14;;;;;;;;;;;;;;;;;;4206905;28;946;-56
2022/01/20 11:58:35;;;;;;;;;;;;;;;;;;4206883;28;947;-55
2022/01/20 12:00:56;;;;;;;;;;;;;;;;;;4206496;28;1909;-55
2022/01/20 12:03:16;;;;;;;;;;;;;;;;;;4206919;28;1036;-56
2022/01/20 12:05:44;;;;;;;;;;;;;;;;;;4189248;28;1473;-56
2022/01/20 12:08:23;;;;;;;;;;;;;;;;;;4191715;28;957;-55
2022/01/20 12:10:44;;;;;;;;;;;;;;;;;;4206731;28;979;-55
2022/01/20 12:13:04;;;;;;;;;;;;;;;;;;4206658;28;1048;-56
2022/01/20 12:15:25;;;;;;;;;;;;;;;;;;4210516;28;1190;-55
2022/01/20 12:17:46;;;;;;;;;;;;;;;;;;4208532;28;1016;-56
2022/01/20 12:20:06;;;;;;;;;;;;;;;;;;4223302;28;2021;-55
2022/01/20 12:22:27;;;;;;;;;;;;;;;;;;4223220;28;1253;-55
2022/01/20 12:24:47;;;;;;;;;;;;;;;;;;4222643;28;1549;-56
2022/01/20 12:27:07;;;;;;;;;;;;;;;;;;4223378;28;1138;-55
2022/01/20 12:29:28;;;;;;;;;;;;;;;;;;4221826;28;1520;-56
2022/01/20 12:31:49;;;;;;;;;;;;;;;;;;4222099;28;1210;-56
2022/01/20 12:34:10;;;;;;;;;;;;;;;;;;4212340;28;942;-56
2022/01/20 12:36:30;;;;;;;;;;;;;;;;;;4206332;28;1404;-55
2022/01/20 12:38:50;;;;;;;;;;;;;;;;;;4206612;28;1083;-56
2022/01/20 12:41:11;;;;;;;;;;;;;;;;;;4206315;28;1913;-55
2022/01/20 12:43:31;;;;;;;;;;;;;;;;;;4206840;28;914;-55
2022/01/20 12:45:58;;;;;;;;;;;;;;;;;;4208121;28;1548;-56
2022/01/20 12:48:18;;;;;;;;;;;;;;;;;;4223037;28;1611;-55
2022/01/20 12:50:38;;;;;;;;;;;;;;;;;;4222971;28;1028;-55
2022/01/20 12:52:58;;;;;;;;;;;;;;;;;;4223058;28;1229;-55
2022/01/20 12:55:20;;;;;;;;;;;;;;;;;;4222759;28;1194;-55
2022/01/20 12:57:42;;;;;;;;;;;;;;;;;;4223307;28;954;-55
2022/01/20 13:00:02;;;;;;;;;;;;;;;;;;4222743;28;1914;-55
2022/01/20 13:02:24;;;;;;;;;;;;;;;;;;4222688;28;948;-55
2022/01/20 13:04:44;;;;;;;;;;;;;;;;;;4222757;28;986;-55
2022/01/20 13:07:05;;;;;;;;;;;;;;;;;;4222745;28;1214;-55
2022/01/20 13:09:26;;;;;;;;;;;;;;;;;;4222595;28;1128;-56
2022/01/20 13:11:53;;;;;;;;;;;;;;;;;;4222829;28;973;-55
2022/01/20 13:14:13;;;;;;;;;;;;;;;;;;4222715;28;944;-55
2022/01/20 13:16:34;;;;;;;;;;;;;;;;;;4222447;28;950;-56
2022/01/20 13:18:55;;;;;;;;;;;;;;;;;;4222660;28;966;-55
2022/01/20 13:21:17;;;;;;;;;;;;;;;;;;4222325;28;1905;-56
2022/01/20 13:23:56;;;;;;;;;;;;;;;;;;4220467;28;1960;-55
2022/01/20 13:26:16;;;;;;;;;;;;;;;;;;4195003;28;1531;-55
2022/01/20 13:28:37;;;;;;;;;;;;;;;;;;4195291;28;2649;-55
2022/01/20 13:30:57;;;;;;;;;;;;;;;;;;4188847;28;1132;-55
2022/01/20 13:33:17;;;;;;;;;;;;;;;;;;4189100;28;1022;-55
2022/01/20 13:35:38;;;;;;;;;;;;;;;;;;4188931;28;1038;-55
2022/01/20 13:37:58;;;;;;;;;;;;;;;;;;4189003;28;1005;-55
2022/01/20 13:40:18;;;;;;;;;;;;;;;;;;4188840;28;1988;-56
2022/01/20 13:42:46;;;;;;;;;;;;;;;;;;4189388;28;835;-56
2022/01/20 13:45:12;;;;;;;;;;;;;;;;;;4188988;28;1151;-55
2022/01/20 13:47:33;;;;;;;;;;;;;;;;;;4188922;28;1259;-54
2022/01/20 13:49:53;;;;;;;;;;;;;;;;;;4188463;28;1211;-54
2022/01/20 13:52:14;;;;;;;;;;;;;;;;;;4189128;28;1305;-53
2022/01/20 13:54:35;;;;;;;;;;;;;;;;;;4188790;28;1379;-54
2022/01/20 13:56:56;;;;;;;;;;;;;;;;;;4188700;28;1155;-54
2022/01/20 13:59:16;;;;;;;;;;;;;;;;;;4188624;28;1149;-54
2022/01/20 14:01:38;;;;;;;;;;;;;;;;;;4188838;28;1983;-53
2022/01/20 14:03:59;;;;;;;;;;;;;;;;;;4188539;28;1166;-53
2022/01/20 14:06:19;;;;;;;;;;;;;;;;;;4188803;28;1017;-53
2022/01/20 14:08:40;;;;;;;;;;;;;;;;;;4188570;28;994;-54
2022/01/20 14:11:00;;;;;;;;;;;;;;;;;;4188664;28;982;-54
2022/01/20 14:13:21;;;;;;;;;;;;;;;;;;4173335;28;1000;-54
2022/01/20 14:15:42;;;;;;;;;;;;;;;;;;4188699;28;987;-54
2022/01/20 14:18:02;;;;;;;;;;;;;;;;;;4188472;28;1343;-54
2022/01/20 14:20:23;;;;;;;;;;;;;;;;;;4188722;28;961;-54
2022/01/20 14:22:43;;;;;;;;;;;;;;;;;;4188670;28;1358;-53
2022/01/20 14:25:04;;;;;;;;;;;;;;;;;;4195562;28;1184;-53
2022/01/20 14:27:24;;;;;;;;;;;;;;;;;;4205138;28;955;-53
2022/01/20 14:29:46;;;;;;;;;;;;;;;;;;4193308;28;2631;-53
2022/01/20 14:32:07;;;;;;;;;;;;;;;;;;4205273;28;960;-53
2022/01/20 14:34:28;;;;;;;;;;;;;;;;;;4205519;28;1067;-53
2022/01/20 14:36:48;;;;;;;;;;;;;;;;;;4205344;28;1196;-53
2022/01/20 14:39:08;;;;;;;;;;;;;;;;;;4204702;28;2605;-53
2022/01/20 14:41:28;;;;;;;;;;;;;;;;;;4205408;28;1906;-53
2022/01/20 14:43:49;;;;;;;;;;;;;;;;;;4205631;28;830;-52
2022/01/20 14:46:10;;;;;;;;;;;;;;;;;;4205526;28;1074;-53
2022/01/20 14:48:32;;;;;;;;;;;;;;;;;;4205136;28;964;-53
2022/01/20 14:50:53;;;;;;;;;;;;;;;;;;4204932;28;860;-53
2022/01/20 14:53:14;;;;;;;;;;;;;;;;;;4205359;28;1023;-54
2022/01/20 14:55:34;;;;;;;;;;;;;;;;;;4205104;28;995;-53
2022/01/20 14:57:55;;;;;;;;;;;;;;;;;;4206097;28;1538;-53
2022/01/20 15:00:15;;;;;;;;;;;;;;;;;;4221602;28;1377;-54
2022/01/20 15:02:36;;;;;;;;;;;;;;;;;;4221003;28;1910;-53
2022/01/20 15:04:56;;;;;;;;;;;;;;;;;;4237972;28;1229;-53
2022/01/20 15:07:16;;;;;;;;;;;;;;;;;;4238616;28;844;-54
2022/01/20 15:09:36;;;;;;;;;;;;;;;;;;4236138;28;1151;-53
2022/01/20 15:11:57;;;;;;;;;;;;;;;;;;4221266;28;1036;-54
2022/01/20 15:14:17;;;;;;;;;;;;;;;;;;4221605;28;936;-53
2022/01/20 15:16:38;;;;;;;;;;;;;;;;;;4234694;28;1086;-53
2022/01/20 15:18:59;;;;;;;;;;;;;;;;;;4221516;28;1109;-53
2022/01/20 15:21:20;;;;;;;;;;;;;;;;;;4224577;28;1987;-53
2022/01/20 15:23:40;;;;;;;;;;;;;;;;;;4224676;28;939;-53
2022/01/20 15:26:01;;;;;;;;;;;;;;;;;;4224021;28;1389;-53
2022/01/20 15:28:22;;;;;;;;;;;;;;;;;;4224388;28;982;-54
2022/01/20 15:30:42;;;;;;;;;;;;;;;;;;4237353;28;966;-53
2022/01/20 15:33:02;;;;;;;;;;;;;;;;;;4224260;28;1205;-54
2022/01/20 15:35:23;;;;;;;;;;;;;;;;;;4224280;28;977;-54
2022/01/20 15:37:44;;;;;;;;;;;;;;;;;;4224633;28;1189;-54
2022/01/20 15:40:04;;;;;;;;;;;;;;;;;;4224751;28;850;-53
2022/01/20 15:42:25;;;;;;;;;;;;;;;;;;4224383;28;1906;-54
2022/01/20 15:44:46;;;;;;;;;;;;;;;;;;4223959;28;1183;-54
2022/01/20 15:47:06;;;;;;;;;;;;;;;;;;4223984;28;1030;-54
2022/01/20 15:49:27;;;;;;;;;;;;;;;;;;4220626;28;1552;-54
2022/01/20 15:51:47;;;;;;;;;;;;;;;;;;4206871;28;1029;-54
2022/01/20 15:54:08;;;;;;;;;;;;;;;;;;4213001;28;1434;-54
2022/01/20 15:56:28;;;;;;;;;;;;;;;;;;4223887;28;927;-54
2022/01/20 15:58:49;;;;;;;;;;;;;;;;;;4224067;28;1311;-53
2022/01/20 16:01:10;;;;;;;;;;;;;;;;;;4223483;28;1905;-53
2022/01/20 16:03:30;;;;;;;;;;;;;;;;;;4223567;28;1321;-53
2022/01/20 16:05:51;;;;;;;;;;;;;;;;;;4223396;28;1168;-53
2022/01/20 16:08:12;;;;;;;;;;;;;;;;;;4223593;28;1172;-54
2022/01/20 16:10:33;;;;;;;;;;;;;;;;;;4223564;28;967;-54
2022/01/20 16:12:53;;;;;;;;;;;;;;;;;;4223756;28;1035;-54
2022/01/20 16:15:13;;;;;;;;;;;;;;;;;;4223328;28;1111;-54
2022/01/20 16:17:34;;;;;;;;;;;;;;;;;;4222424;28;1484;-53
2022/01/20 16:19:54;;;;;;;;;;;;;;;;;;4223283;28;982;-53
2022/01/20 16:22:14;;;;;;;;;;;;;;;;;;4222964;28;1985;-54
2022/01/20 16:24:35;;;;;;;;;;;;;;;;;;4219068;28;1789;-53
2022/01/20 16:26:55;;;;;;;;;;;;;;;;;;4221615;28;1657;-54
2022/01/20 16:29:18;;;;;;;;;;;;;;;;;;4221330;28;942;-54
2022/01/20 16:31:38;;;;;;;;;;;;;;;;;;4204847;28;976;-54
2022/01/20 16:33:59;;;;;;;;;;;;;;;;;;4218222;28;1123;-54
2022/01/20 16:36:19;;;;;;;;;;;;;;;;;;4221362;28;978;-54
2022/01/20 16:38:40;;;;;;;;;;;;;;;;;;4219614;28;1154;-54
2022/01/20 16:41:01;;;;;;;;;;;;;;;;;;4221354;28;1071;-54
2022/01/20 16:43:21;;;;;;;;;;;;;;;;;;4221541;28;1405;-53
2022/01/20 16:45:42;;;;;;;;;;;;;;;;;;4221220;28;1008;-54
2022/01/20 16:48:03;;;;;;;;;;;;;;;;;;4221448;28;1126;-54
2022/01/20 16:50:24;;;;;;;;;;;;;;;;;;4221065;28;1192;-54
2022/01/20 16:52:44;;;;;;;;;;;;;;;;;;4221205;28;1136;-54
2022/01/20 16:55:04;;;;;;;;;;;;;;;;;;4221235;28;1090;-53
2022/01/20 16:57:24;;;;;;;;;;;;;;;;;;4220717;28;1763;-54
2022/01/20 16:59:45;;;;;;;;;;;;;;;;;;4221490;28;2047;-54
2022/01/20 17:02:06;;;;;;;;;;;;;;;;;;4221671;28;1929;-54
2022/01/20 17:04:26;;;;;;;;;;;;;;;;;;4221148;28;1634;-53
2022/01/20 17:06:46;;;;;;;;;;;;;;;;;;4221175;28;938;-53
2022/01/20 17:09:08;;;;;;;;;;;;;;;;;;4221005;28;1833;-53
2022/01/20 17:11:28;;;;;;;;;;;;;;;;;;4204433;28;1026;-53
2022/01/20 17:13:48;;;;;;;;;;;;;;;;;;4209051;28;1677;-53
2022/01/20 17:16:09;;;;;;;;;;;;;;;;;;4221279;28;1166;-53
2022/01/20 17:18:29;;;;;;;;;;;;;;;;;;4221197;28;1285;-55
2022/01/20 17:20:51;;;;;;;;;;;;;;;;;;4220961;28;958;-53